sensor_id;sensor_type;location;lat;lon;timestamp;P1;durP1;ratioP1;P2;durP2;ratioP2
60352;SDS011;46196;52.970;6.954;2023-07-02T00:02:20;13.25;;;6.07;;
60352;SDS011;46196;52.970;6.954;2023-07-02T00:04:46;11.25;;;5.65;;
60352;SDS011;46196;52.970;6.954;2023-07-02T00:07:12;9.70;;;4.95;;
60352;SDS011;46196;52.970;6.954;2023-07-02T00:09:39;8.98;;;5.10;;
60352;SDS011;46196;52.970;6.954;2023-07-02T00:12:05;10.30;;;5.30;;
60352;SDS011;46196;52.970;6.954;2023-07-02T00:14:32;13.65;;;5.97;;
60352;SDS011;46196;52.970;6.954;2023-07-02T00:16:58;13.30;;;4.97;;
60352;SDS011;46196;52.970;6.954;2023-07-02T00:19:24;10.25;;;5.07;;
60352;SDS011;46196;52.970;6.954;2023-07-02T00:21:50;17.42;;;6.32;;
60352;SDS011;46196;52.970;6.954;2023-07-02T00:24:18;15.48;;;5.97;;
60352;SDS011;46196;52.970;6.954;2023-07-02T00:26:44;10.32;;;5.18;;
60352;SDS011;46196;52.970;6.954;2023-07-02T00:29:09;10.52;;;5.25;;
60352;SDS011;46196;52.970;6.954;2023-07-02T00:31:36;15.30;;;5.30;;
60352;SDS011;46196;52.970;6.954;2023-07-02T00:34:01;14.18;;;5.78;;
60352;SDS011;46196;52.970;6.954;2023-07-02T00:36:28;15.30;;;6.18;;
60352;SDS011;46196;52.970;6.954;2023-07-02T00:38:54;10.95;;;5.90;;
60352;SDS011;46196;52.970;6.954;2023-07-02T00:41:20;15.85;;;6.80;;
60352;SDS011;46196;52.970;6.954;2023-07-02T00:43:46;12.07;;;5.15;;
60352;SDS011;46196;52.970;6.954;2023-07-02T00:46:15;13.95;;;5.85;;
60352;SDS011;46196;52.970;6.954;2023-07-02T00:48:51;13.32;;;5.55;;
60352;SDS011;46196;52.970;6.954;2023-07-02T00:51:20;20.27;;;5.78;;
60352;SDS011;46196;52.970;6.954;2023-07-02T00:53:47;15.10;;;5.13;;
60352;SDS011;46196;52.970;6.954;2023-07-02T00:56:14;14.20;;;5.60;;
60352;SDS011;46196;52.970;6.954;2023-07-02T00:58:41;14.38;;;6.40;;
60352;SDS011;46196;52.970;6.954;2023-07-02T01:01:14;19.80;;;6.00;;
60352;SDS011;46196;52.970;6.954;2023-07-02T01:04:00;18.83;;;6.47;;
60352;SDS011;46196;52.970;6.954;2023-07-02T01:06:26;19.90;;;6.55;;
60352;SDS011;46196;52.970;6.954;2023-07-02T01:08:54;15.48;;;6.88;;
60352;SDS011;46196;52.970;6.954;2023-07-02T01:11:22;20.67;;;6.82;;
60352;SDS011;46196;52.970;6.954;2023-07-02T01:13:51;16.00;;;7.18;;
60352;SDS011;46196;52.970;6.954;2023-07-02T01:16:19;14.57;;;6.97;;
60352;SDS011;46196;52.970;6.954;2023-07-02T01:18:47;14.98;;;6.60;;
60352;SDS011;46196;52.970;6.954;2023-07-02T01:21:16;22.48;;;7.03;;
60352;SDS011;46196;52.970;6.954;2023-07-02T01:23:43;19.00;;;6.75;;
60352;SDS011;46196;52.970;6.954;2023-07-02T01:26:09;16.85;;;6.43;;
60352;SDS011;46196;52.970;6.954;2023-07-02T01:28:35;14.05;;;6.53;;
60352;SDS011;46196;52.970;6.954;2023-07-02T01:31:04;15.33;;;6.60;;
60352;SDS011;46196;52.970;6.954;2023-07-02T01:33:33;16.75;;;6.57;;
60352;SDS011;46196;52.970;6.954;2023-07-02T01:35:58;24.90;;;7.28;;
60352;SDS011;46196;52.970;6.954;2023-07-02T01:38:24;15.00;;;6.90;;
60352;SDS011;46196;52.970;6.954;2023-07-02T01:40:50;14.25;;;6.53;;
60352;SDS011;46196;52.970;6.954;2023-07-02T01:43:16;19.63;;;7.25;;
60352;SDS011;46196;52.970;6.954;2023-07-02T01:45:41;21.80;;;6.75;;
60352;SDS011;46196;52.970;6.954;2023-07-02T01:48:07;15.98;;;7.65;;
60352;SDS011;46196;52.970;6.954;2023-07-02T01:50:33;15.98;;;6.97;;
60352;SDS011;46196;52.970;6.954;2023-07-02T01:52:59;16.85;;;6.90;;
60352;SDS011;46196;52.970;6.954;2023-07-02T01:55:24;24.90;;;8.18;;
60352;SDS011;46196;52.970;6.954;2023-07-02T01:57:50;21.58;;;8.18;;
60352;SDS011;46196;52.970;6.954;2023-07-02T02:00:16;19.38;;;7.53;;
60352;SDS011;46196;52.970;6.954;2023-07-02T02:02:42;19.70;;;7.43;;
60352;SDS011;46196;52.970;6.954;2023-07-02T02:05:08;20.65;;;8.07;;
60352;SDS011;46196;52.970;6.954;2023-07-02T02:07:35;18.70;;;8.15;;
60352;SDS011;46196;52.970;6.954;2023-07-02T02:10:01;22.85;;;7.18;;
60352;SDS011;46196;52.970;6.954;2023-07-02T02:12:31;24.50;;;8.52;;
60352;SDS011;46196;52.970;6.954;2023-07-02T02:14:56;23.67;;;7.78;;
60352;SDS011;46196;52.970;6.954;2023-07-02T02:17:22;25.70;;;8.20;;
60352;SDS011;46196;52.970;6.954;2023-07-02T02:19:49;33.55;;;8.35;;
60352;SDS011;46196;52.970;6.954;2023-07-02T02:22:15;19.30;;;7.53;;
60352;SDS011;46196;52.970;6.954;2023-07-02T02:24:41;27.55;;;8.38;;
60352;SDS011;46196;52.970;6.954;2023-07-02T02:27:07;24.40;;;7.38;;
60352;SDS011;46196;52.970;6.954;2023-07-02T02:29:33;32.35;;;9.48;;
60352;SDS011;46196;52.970;6.954;2023-07-02T02:32:00;23.63;;;7.72;;
60352;SDS011;46196;52.970;6.954;2023-07-02T02:34:25;26.90;;;7.72;;
60352;SDS011;46196;52.970;6.954;2023-07-02T02:36:51;20.52;;;7.10;;
60352;SDS011;46196;52.970;6.954;2023-07-02T02:39:17;25.52;;;8.23;;
60352;SDS011;46196;52.970;6.954;2023-07-02T02:41:42;24.38;;;8.32;;
60352;SDS011;46196;52.970;6.954;2023-07-02T02:44:08;23.80;;;8.15;;
60352;SDS011;46196;52.970;6.954;2023-07-02T02:46:34;19.98;;;7.75;;
60352;SDS011;46196;52.970;6.954;2023-07-02T02:48:59;28.10;;;9.48;;
60352;SDS011;46196;52.970;6.954;2023-07-02T02:51:25;14.73;;;7.15;;
60352;SDS011;46196;52.970;6.954;2023-07-02T02:53:51;19.73;;;7.50;;
60352;SDS011;46196;52.970;6.954;2023-07-02T02:56:16;24.65;;;8.20;;
60352;SDS011;46196;52.970;6.954;2023-07-02T02:58:42;26.83;;;9.55;;
60352;SDS011;46196;52.970;6.954;2023-07-02T03:01:08;21.50;;;6.65;;
60352;SDS011;46196;52.970;6.954;2023-07-02T03:03:37;20.95;;;6.90;;
60352;SDS011;46196;52.970;6.954;2023-07-02T03:06:04;15.97;;;5.60;;
60352;SDS011;46196;52.970;6.954;2023-07-02T03:08:30;19.40;;;7.65;;
60352;SDS011;46196;52.970;6.954;2023-07-02T03:10:56;32.60;;;9.18;;
60352;SDS011;46196;52.970;6.954;2023-07-02T03:13:22;17.70;;;6.57;;
60352;SDS011;46196;52.970;6.954;2023-07-02T03:15:48;29.02;;;8.15;;
60352;SDS011;46196;52.970;6.954;2023-07-02T03:18:14;26.65;;;9.25;;
60352;SDS011;46196;52.970;6.954;2023-07-02T03:20:40;30.35;;;8.05;;
60352;SDS011;46196;52.970;6.954;2023-07-02T03:23:06;22.92;;;6.57;;
60352;SDS011;46196;52.970;6.954;2023-07-02T03:25:31;29.55;;;8.85;;
60352;SDS011;46196;52.970;6.954;2023-07-02T03:27:57;23.42;;;8.15;;
60352;SDS011;46196;52.970;6.954;2023-07-02T03:30:23;34.17;;;9.20;;
60352;SDS011;46196;52.970;6.954;2023-07-02T03:32:49;24.15;;;8.48;;
60352;SDS011;46196;52.970;6.954;2023-07-02T03:35:14;23.20;;;8.57;;
60352;SDS011;46196;52.970;6.954;2023-07-02T03:37:40;24.20;;;7.97;;
60352;SDS011;46196;52.970;6.954;2023-07-02T03:40:08;33.72;;;10.38;;
60352;SDS011;46196;52.970;6.954;2023-07-02T03:42:34;34.05;;;9.65;;
60352;SDS011;46196;52.970;6.954;2023-07-02T03:45:00;37.42;;;10.77;;
60352;SDS011;46196;52.970;6.954;2023-07-02T03:47:26;35.13;;;8.85;;
60352;SDS011;46196;52.970;6.954;2023-07-02T03:49:52;25.98;;;6.93;;
60352;SDS011;46196;52.970;6.954;2023-07-02T03:52:19;27.27;;;8.45;;
60352;SDS011;46196;52.970;6.954;2023-07-02T03:54:44;26.90;;;9.38;;
60352;SDS011;46196;52.970;6.954;2023-07-02T03:57:10;32.55;;;9.98;;
60352;SDS011;46196;52.970;6.954;2023-07-02T03:59:36;22.80;;;7.78;;
60352;SDS011;46196;52.970;6.954;2023-07-02T04:02:01;24.55;;;8.45;;
60352;SDS011;46196;52.970;6.954;2023-07-02T04:04:27;31.60;;;7.60;;
60352;SDS011;46196;52.970;6.954;2023-07-02T04:06:53;20.92;;;7.63;;
60352;SDS011;46196;52.970;6.954;2023-07-02T04:09:19;32.53;;;10.85;;
60352;SDS011;46196;52.970;6.954;2023-07-02T04:11:46;34.45;;;9.93;;
60352;SDS011;46196;52.970;6.954;2023-07-02T04:14:11;32.95;;;9.95;;
60352;SDS011;46196;52.970;6.954;2023-07-02T04:16:37;29.70;;;8.77;;
60352;SDS011;46196;52.970;6.954;2023-07-02T04:19:03;40.20;;;10.07;;
60352;SDS011;46196;52.970;6.954;2023-07-02T04:21:29;37.25;;;9.48;;
60352;SDS011;46196;52.970;6.954;2023-07-02T04:23:55;34.55;;;11.00;;
60352;SDS011;46196;52.970;6.954;2023-07-02T04:26:21;27.92;;;8.32;;
60352;SDS011;46196;52.970;6.954;2023-07-02T04:28:46;32.42;;;9.73;;
60352;SDS011;46196;52.970;6.954;2023-07-02T04:31:12;30.10;;;9.68;;
60352;SDS011;46196;52.970;6.954;2023-07-02T04:33:38;24.30;;;8.40;;
60352;SDS011;46196;52.970;6.954;2023-07-02T04:36:04;23.08;;;6.43;;
60352;SDS011;46196;52.970;6.954;2023-07-02T04:38:30;32.17;;;9.30;;
60352;SDS011;46196;52.970;6.954;2023-07-02T04:40:56;42.28;;;9.88;;
60352;SDS011;46196;52.970;6.954;2023-07-02T04:43:30;39.10;;;9.35;;
60352;SDS011;46196;52.970;6.954;2023-07-02T04:45:56;25.58;;;6.80;;
60352;SDS011;46196;52.970;6.954;2023-07-02T04:48:22;36.88;;;10.18;;
60352;SDS011;46196;52.970;6.954;2023-07-02T04:50:48;39.20;;;8.60;;
60352;SDS011;46196;52.970;6.954;2023-07-02T04:53:14;24.38;;;8.40;;
60352;SDS011;46196;52.970;6.954;2023-07-02T04:55:40;27.25;;;8.13;;
60352;SDS011;46196;52.970;6.954;2023-07-02T04:58:06;32.08;;;9.20;;
60352;SDS011;46196;52.970;6.954;2023-07-02T05:00:32;25.00;;;8.50;;
60352;SDS011;46196;52.970;6.954;2023-07-02T05:02:58;13.60;;;5.82;;
60352;SDS011;46196;52.970;6.954;2023-07-02T05:05:24;31.95;;;9.15;;
60352;SDS011;46196;52.970;6.954;2023-07-02T05:07:49;29.80;;;8.27;;
60352;SDS011;46196;52.970;6.954;2023-07-02T05:10:15;23.88;;;9.23;;
60352;SDS011;46196;52.970;6.954;2023-07-02T05:12:41;26.83;;;7.35;;
60352;SDS011;46196;52.970;6.954;2023-07-02T05:15:06;38.38;;;10.10;;
60352;SDS011;46196;52.970;6.954;2023-07-02T05:17:32;28.65;;;9.00;;
60352;SDS011;46196;52.970;6.954;2023-07-02T05:20:00;33.60;;;9.93;;
60352;SDS011;46196;52.970;6.954;2023-07-02T05:22:27;25.38;;;8.63;;
60352;SDS011;46196;52.970;6.954;2023-07-02T05:24:53;38.28;;;8.88;;
60352;SDS011;46196;52.970;6.954;2023-07-02T05:27:18;28.65;;;8.95;;
60352;SDS011;46196;52.970;6.954;2023-07-02T05:29:44;34.47;;;8.70;;
60352;SDS011;46196;52.970;6.954;2023-07-02T05:32:10;23.48;;;8.07;;
60352;SDS011;46196;52.970;6.954;2023-07-02T05:34:35;39.33;;;9.60;;
60352;SDS011;46196;52.970;6.954;2023-07-02T05:37:01;34.60;;;9.07;;
60352;SDS011;46196;52.970;6.954;2023-07-02T05:39:27;34.85;;;8.90;;
60352;SDS011;46196;52.970;6.954;2023-07-02T05:41:54;29.33;;;9.70;;
60352;SDS011;46196;52.970;6.954;2023-07-02T05:44:21;27.88;;;9.35;;
60352;SDS011;46196;52.970;6.954;2023-07-02T05:46:46;16.48;;;8.10;;
60352;SDS011;46196;52.970;6.954;2023-07-02T05:49:12;26.35;;;7.68;;
60352;SDS011;46196;52.970;6.954;2023-07-02T05:51:38;28.90;;;9.00;;
60352;SDS011;46196;52.970;6.954;2023-07-02T05:54:04;35.50;;;9.05;;
60352;SDS011;46196;52.970;6.954;2023-07-02T05:56:29;23.85;;;9.10;;
60352;SDS011;46196;52.970;6.954;2023-07-02T05:58:55;24.00;;;6.80;;
60352;SDS011;46196;52.970;6.954;2023-07-02T06:01:20;27.50;;;7.40;;
60352;SDS011;46196;52.970;6.954;2023-07-02T06:03:48;29.95;;;9.98;;
60352;SDS011;46196;52.970;6.954;2023-07-02T06:06:14;33.53;;;9.27;;
60352;SDS011;46196;52.970;6.954;2023-07-02T06:08:40;25.75;;;7.50;;
60352;SDS011;46196;52.970;6.954;2023-07-02T06:11:06;27.73;;;9.00;;
60352;SDS011;46196;52.970;6.954;2023-07-02T06:13:32;22.52;;;8.13;;
60352;SDS011;46196;52.970;6.954;2023-07-02T06:15:58;23.10;;;7.93;;
60352;SDS011;46196;52.970;6.954;2023-07-02T06:18:24;25.83;;;8.70;;
60352;SDS011;46196;52.970;6.954;2023-07-02T06:20:50;26.38;;;7.68;;
60352;SDS011;46196;52.970;6.954;2023-07-02T06:23:15;22.38;;;6.93;;
60352;SDS011;46196;52.970;6.954;2023-07-02T06:25:41;26.70;;;7.25;;
60352;SDS011;46196;52.970;6.954;2023-07-02T06:28:06;29.45;;;7.30;;
60352;SDS011;46196;52.970;6.954;2023-07-02T06:30:32;17.73;;;6.10;;
60352;SDS011;46196;52.970;6.954;2023-07-02T06:32:58;29.42;;;7.53;;
60352;SDS011;46196;52.970;6.954;2023-07-02T06:35:24;29.27;;;7.75;;
60352;SDS011;46196;52.970;6.954;2023-07-02T06:37:49;18.13;;;6.72;;
60352;SDS011;46196;52.970;6.954;2023-07-02T06:40:15;27.75;;;8.25;;
60352;SDS011;46196;52.970;6.954;2023-07-02T06:42:41;16.92;;;5.65;;
60352;SDS011;46196;52.970;6.954;2023-07-02T06:45:06;24.52;;;7.35;;
60352;SDS011;46196;52.970;6.954;2023-07-02T06:47:32;20.73;;;6.68;;
60352;SDS011;46196;52.970;6.954;2023-07-02T06:49:58;23.73;;;7.50;;
60352;SDS011;46196;52.970;6.954;2023-07-02T06:52:24;19.58;;;7.25;;
60352;SDS011;46196;52.970;6.954;2023-07-02T06:54:50;21.27;;;7.38;;
60352;SDS011;46196;52.970;6.954;2023-07-02T06:57:16;22.73;;;7.82;;
60352;SDS011;46196;52.970;6.954;2023-07-02T06:59:41;20.98;;;7.13;;
60352;SDS011;46196;52.970;6.954;2023-07-02T07:02:07;17.02;;;6.38;;
60352;SDS011;46196;52.970;6.954;2023-07-02T07:04:32;16.40;;;5.50;;
60352;SDS011;46196;52.970;6.954;2023-07-02T07:07:01;18.48;;;6.03;;
60352;SDS011;46196;52.970;6.954;2023-07-02T07:09:31;26.63;;;7.50;;
60352;SDS011;46196;52.970;6.954;2023-07-02T07:11:56;17.17;;;6.28;;
60352;SDS011;46196;52.970;6.954;2023-07-02T07:14:22;14.00;;;5.38;;
60352;SDS011;46196;52.970;6.954;2023-07-02T07:16:48;21.10;;;6.47;;
60352;SDS011;46196;52.970;6.954;2023-07-02T07:19:14;25.13;;;6.53;;
60352;SDS011;46196;52.970;6.954;2023-07-02T07:21:40;22.73;;;6.30;;
60352;SDS011;46196;52.970;6.954;2023-07-02T07:24:05;22.90;;;6.10;;
60352;SDS011;46196;52.970;6.954;2023-07-02T07:26:31;19.65;;;7.63;;
60352;SDS011;46196;52.970;6.954;2023-07-02T07:28:57;22.30;;;6.40;;
60352;SDS011;46196;52.970;6.954;2023-07-02T07:31:24;20.65;;;7.32;;
60352;SDS011;46196;52.970;6.954;2023-07-02T07:33:49;20.77;;;7.32;;
60352;SDS011;46196;52.970;6.954;2023-07-02T07:36:15;20.63;;;7.15;;
60352;SDS011;46196;52.970;6.954;2023-07-02T07:38:43;24.75;;;6.95;;
60352;SDS011;46196;52.970;6.954;2023-07-02T07:41:08;14.15;;;5.60;;
60352;SDS011;46196;52.970;6.954;2023-07-02T07:43:34;20.15;;;6.20;;
60352;SDS011;46196;52.970;6.954;2023-07-02T07:46:00;20.65;;;6.13;;
60352;SDS011;46196;52.970;6.954;2023-07-02T07:48:25;19.02;;;5.45;;
60352;SDS011;46196;52.970;6.954;2023-07-02T07:50:51;22.13;;;5.88;;
60352;SDS011;46196;52.970;6.954;2023-07-02T07:53:17;14.90;;;5.53;;
60352;SDS011;46196;52.970;6.954;2023-07-02T07:55:42;11.43;;;4.82;;
60352;SDS011;46196;52.970;6.954;2023-07-02T07:58:08;21.58;;;5.38;;
60352;SDS011;46196;52.970;6.954;2023-07-02T08:00:34;14.93;;;4.82;;
60352;SDS011;46196;52.970;6.954;2023-07-02T08:02:59;9.85;;;3.90;;
60352;SDS011;46196;52.970;6.954;2023-07-02T08:05:26;15.93;;;4.40;;
60352;SDS011;46196;52.970;6.954;2023-07-02T08:07:52;11.93;;;4.00;;
60352;SDS011;46196;52.970;6.954;2023-07-02T08:10:18;11.48;;;4.25;;
60352;SDS011;46196;52.970;6.954;2023-07-02T08:12:44;9.13;;;4.38;;
60352;SDS011;46196;52.970;6.954;2023-07-02T08:15:12;13.50;;;4.43;;
60352;SDS011;46196;52.970;6.954;2023-07-02T08:17:37;13.48;;;5.05;;
60352;SDS011;46196;52.970;6.954;2023-07-02T08:20:03;10.40;;;4.13;;
60352;SDS011;46196;52.970;6.954;2023-07-02T08:22:30;12.52;;;4.88;;
60352;SDS011;46196;52.970;6.954;2023-07-02T08:24:55;11.02;;;3.90;;
60352;SDS011;46196;52.970;6.954;2023-07-02T08:27:21;15.52;;;4.78;;
60352;SDS011;46196;52.970;6.954;2023-07-02T08:29:48;14.70;;;4.30;;
60352;SDS011;46196;52.970;6.954;2023-07-02T08:32:14;21.63;;;5.45;;
60352;SDS011;46196;52.970;6.954;2023-07-02T08:34:40;13.32;;;4.50;;
60352;SDS011;46196;52.970;6.954;2023-07-02T08:37:06;6.70;;;3.47;;
60352;SDS011;46196;52.970;6.954;2023-07-02T08:39:32;12.70;;;4.97;;
60352;SDS011;46196;52.970;6.954;2023-07-02T08:41:57;11.93;;;4.28;;
60352;SDS011;46196;52.970;6.954;2023-07-02T08:44:23;12.00;;;5.03;;
60352;SDS011;46196;52.970;6.954;2023-07-02T08:46:50;17.75;;;4.82;;
60352;SDS011;46196;52.970;6.954;2023-07-02T08:49:18;14.10;;;4.22;;
60352;SDS011;46196;52.970;6.954;2023-07-02T08:51:44;17.35;;;4.95;;
60352;SDS011;46196;52.970;6.954;2023-07-02T08:54:11;11.13;;;4.25;;
60352;SDS011;46196;52.970;6.954;2023-07-02T08:56:36;12.95;;;4.75;;
60352;SDS011;46196;52.970;6.954;2023-07-02T08:59:06;10.93;;;3.95;;
60352;SDS011;46196;52.970;6.954;2023-07-02T09:01:32;10.52;;;4.22;;
60352;SDS011;46196;52.970;6.954;2023-07-02T09:03:58;11.60;;;4.30;;
60352;SDS011;46196;52.970;6.954;2023-07-02T09:06:27;11.32;;;4.72;;
60352;SDS011;46196;52.970;6.954;2023-07-02T09:09:02;15.77;;;5.20;;
60352;SDS011;46196;52.970;6.954;2023-07-02T09:11:29;11.80;;;4.28;;
60352;SDS011;46196;52.970;6.954;2023-07-02T09:13:55;10.15;;;3.95;;
60352;SDS011;46196;52.970;6.954;2023-07-02T09:16:30;12.35;;;4.30;;
60352;SDS011;46196;52.970;6.954;2023-07-02T09:19:05;13.57;;;4.32;;
60352;SDS011;46196;52.970;6.954;2023-07-02T09:21:38;12.43;;;4.70;;
60352;SDS011;46196;52.970;6.954;2023-07-02T09:26:42;15.98;;;4.30;;
60352;SDS011;46196;52.970;6.954;2023-07-02T09:29:12;20.00;;;5.20;;
60352;SDS011;46196;52.970;6.954;2023-07-02T09:31:44;14.10;;;4.70;;
60352;SDS011;46196;52.970;6.954;2023-07-02T09:34:14;15.82;;;6.65;;
60352;SDS011;46196;52.970;6.954;2023-07-02T09:36:40;9.77;;;4.28;;
60352;SDS011;46196;52.970;6.954;2023-07-02T09:41:41;16.17;;;5.03;;
60352;SDS011;46196;52.970;6.954;2023-07-02T09:44:08;12.20;;;4.90;;
60352;SDS011;46196;52.970;6.954;2023-07-02T09:46:41;13.98;;;4.93;;
60352;SDS011;46196;52.970;6.954;2023-07-02T09:49:11;13.30;;;5.68;;
60352;SDS011;46196;52.970;6.954;2023-07-02T09:51:41;16.77;;;5.57;;
60352;SDS011;46196;52.970;6.954;2023-07-02T09:54:08;16.52;;;4.47;;
60352;SDS011;46196;52.970;6.954;2023-07-02T09:56:34;16.02;;;4.95;;
60352;SDS011;46196;52.970;6.954;2023-07-02T09:58:59;19.65;;;5.50;;
60352;SDS011;46196;52.970;6.954;2023-07-02T10:01:25;15.63;;;5.97;;
60352;SDS011;46196;52.970;6.954;2023-07-02T10:03:50;17.85;;;5.13;;
60352;SDS011;46196;52.970;6.954;2023-07-02T10:06:16;12.70;;;5.05;;
60352;SDS011;46196;52.970;6.954;2023-07-02T10:08:52;11.18;;;3.90;;
60352;SDS011;46196;52.970;6.954;2023-07-02T10:11:18;17.15;;;5.22;;
60352;SDS011;46196;52.970;6.954;2023-07-02T10:13:44;11.38;;;4.97;;
60352;SDS011;46196;52.970;6.954;2023-07-02T10:16:09;14.30;;;4.50;;
60352;SDS011;46196;52.970;6.954;2023-07-02T10:18:35;12.13;;;4.63;;
60352;SDS011;46196;52.970;6.954;2023-07-02T10:21:12;14.48;;;4.95;;
60352;SDS011;46196;52.970;6.954;2023-07-02T10:23:42;12.27;;;4.10;;
60352;SDS011;46196;52.970;6.954;2023-07-02T10:26:13;12.93;;;4.53;;
60352;SDS011;46196;52.970;6.954;2023-07-02T10:28:42;9.10;;;3.83;;
60352;SDS011;46196;52.970;6.954;2023-07-02T10:31:20;13.85;;;5.13;;
60352;SDS011;46196;52.970;6.954;2023-07-02T10:33:47;15.82;;;4.72;;
60352;SDS011;46196;52.970;6.954;2023-07-02T10:36:22;11.95;;;4.03;;
60352;SDS011;46196;52.970;6.954;2023-07-02T10:38:50;11.23;;;4.28;;
60352;SDS011;46196;52.970;6.954;2023-07-02T10:41:26;7.50;;;4.05;;
60352;SDS011;46196;52.970;6.954;2023-07-02T10:43:54;11.85;;;3.50;;
60352;SDS011;46196;52.970;6.954;2023-07-02T10:46:20;10.52;;;4.00;;
60352;SDS011;46196;52.970;6.954;2023-07-02T10:48:56;8.68;;;3.55;;
60352;SDS011;46196;52.970;6.954;2023-07-02T10:51:22;13.82;;;3.85;;
60352;SDS011;46196;52.970;6.954;2023-07-02T10:53:57;19.30;;;5.10;;
60352;SDS011;46196;52.970;6.954;2023-07-02T10:56:24;15.70;;;4.78;;
60352;SDS011;46196;52.970;6.954;2023-07-02T10:58:52;12.48;;;4.68;;
60352;SDS011;46196;52.970;6.954;2023-07-02T11:01:27;12.75;;;4.05;;
60352;SDS011;46196;52.970;6.954;2023-07-02T11:06:24;14.27;;;5.40;;
60352;SDS011;46196;52.970;6.954;2023-07-02T11:08:51;11.70;;;4.63;;
60352;SDS011;46196;52.970;6.954;2023-07-02T11:11:16;13.40;;;4.63;;
60352;SDS011;46196;52.970;6.954;2023-07-02T11:13:46;14.05;;;4.60;;
60352;SDS011;46196;52.970;6.954;2023-07-02T11:19:09;8.60;;;4.10;;
60352;SDS011;46196;52.970;6.954;2023-07-02T11:21:36;15.52;;;5.07;;
60352;SDS011;46196;52.970;6.954;2023-07-02T11:24:08;11.93;;;3.85;;
60352;SDS011;46196;52.970;6.954;2023-07-02T11:26:37;9.25;;;4.00;;
60352;SDS011;46196;52.970;6.954;2023-07-02T11:29:12;10.90;;;3.75;;
60352;SDS011;46196;52.970;6.954;2023-07-02T11:31:43;10.57;;;4.07;;
60352;SDS011;46196;52.970;6.954;2023-07-02T11:34:15;7.75;;;3.95;;
60352;SDS011;46196;52.970;6.954;2023-07-02T11:36:48;11.70;;;4.20;;
60352;SDS011;46196;52.970;6.954;2023-07-02T11:39:15;11.55;;;4.00;;
60352;SDS011;46196;52.970;6.954;2023-07-02T11:41:44;11.52;;;4.05;;
60352;SDS011;46196;52.970;6.954;2023-07-02T11:44:10;12.50;;;4.70;;
60352;SDS011;46196;52.970;6.954;2023-07-02T11:46:36;11.85;;;3.85;;
60352;SDS011;46196;52.970;6.954;2023-07-02T11:49:02;15.98;;;4.10;;
60352;SDS011;46196;52.970;6.954;2023-07-02T11:51:35;9.18;;;3.55;;
60352;SDS011;46196;52.970;6.954;2023-07-02T11:54:04;11.00;;;4.35;;
60352;SDS011;46196;52.970;6.954;2023-07-02T11:56:31;13.55;;;4.43;;
60352;SDS011;46196;52.970;6.954;2023-07-02T11:58:56;16.25;;;4.95;;
60352;SDS011;46196;52.970;6.954;2023-07-02T12:01:22;17.05;;;4.60;;
60352;SDS011;46196;52.970;6.954;2023-07-02T12:03:48;11.23;;;4.28;;
60352;SDS011;46196;52.970;6.954;2023-07-02T12:06:14;9.55;;;3.85;;
60352;SDS011;46196;52.970;6.954;2023-07-02T12:08:39;8.15;;;3.95;;
60352;SDS011;46196;52.970;6.954;2023-07-02T12:11:05;11.05;;;4.28;;
60352;SDS011;46196;52.970;6.954;2023-07-02T12:13:31;16.00;;;4.35;;
60352;SDS011;46196;52.970;6.954;2023-07-02T12:15:57;12.68;;;4.13;;
60352;SDS011;46196;52.970;6.954;2023-07-02T12:18:22;14.98;;;4.32;;
60352;SDS011;46196;52.970;6.954;2023-07-02T12:20:48;10.50;;;4.18;;
60352;SDS011;46196;52.970;6.954;2023-07-02T12:23:14;14.38;;;4.93;;
60352;SDS011;46196;52.970;6.954;2023-07-02T12:25:40;11.50;;;4.40;;
60352;SDS011;46196;52.970;6.954;2023-07-02T12:28:05;10.18;;;3.83;;
60352;SDS011;46196;52.970;6.954;2023-07-02T12:30:31;9.95;;;4.05;;
60352;SDS011;46196;52.970;6.954;2023-07-02T12:32:57;10.52;;;4.28;;
60352;SDS011;46196;52.970;6.954;2023-07-02T12:35:23;9.82;;;4.18;;
60352;SDS011;46196;52.970;6.954;2023-07-02T12:37:50;11.52;;;4.47;;
60352;SDS011;46196;52.970;6.954;2023-07-02T12:40:17;11.23;;;4.10;;
60352;SDS011;46196;52.970;6.954;2023-07-02T12:42:43;13.25;;;3.55;;
60352;SDS011;46196;52.970;6.954;2023-07-02T12:45:10;9.07;;;3.85;;
60352;SDS011;46196;52.970;6.954;2023-07-02T12:47:37;16.63;;;4.07;;
60352;SDS011;46196;52.970;6.954;2023-07-02T12:50:04;9.00;;;3.85;;
60352;SDS011;46196;52.970;6.954;2023-07-02T12:52:30;10.60;;;3.53;;
60352;SDS011;46196;52.970;6.954;2023-07-02T12:54:56;10.90;;;4.50;;
60352;SDS011;46196;52.970;6.954;2023-07-02T12:57:22;11.45;;;3.58;;
60352;SDS011;46196;52.970;6.954;2023-07-02T12:59:47;15.00;;;4.43;;
60352;SDS011;46196;52.970;6.954;2023-07-02T13:02:13;12.25;;;4.13;;
60352;SDS011;46196;52.970;6.954;2023-07-02T13:04:39;11.63;;;3.65;;
60352;SDS011;46196;52.970;6.954;2023-07-02T13:07:05;12.68;;;4.25;;
60352;SDS011;46196;52.970;6.954;2023-07-02T13:09:31;13.15;;;4.13;;
60352;SDS011;46196;52.970;6.954;2023-07-02T13:11:56;12.25;;;3.50;;
60352;SDS011;46196;52.970;6.954;2023-07-02T13:14:23;9.60;;;3.63;;
60352;SDS011;46196;52.970;6.954;2023-07-02T13:16:49;11.68;;;3.60;;
60352;SDS011;46196;52.970;6.954;2023-07-02T13:19:14;10.18;;;3.88;;
60352;SDS011;46196;52.970;6.954;2023-07-02T13:21:40;8.93;;;4.13;;
60352;SDS011;46196;52.970;6.954;2023-07-02T13:24:06;14.52;;;3.90;;
60352;SDS011;46196;52.970;6.954;2023-07-02T13:26:32;12.82;;;4.10;;
60352;SDS011;46196;52.970;6.954;2023-07-02T13:28:58;11.45;;;4.10;;
60352;SDS011;46196;52.970;6.954;2023-07-02T13:31:23;10.13;;;4.38;;
60352;SDS011;46196;52.970;6.954;2023-07-02T13:33:49;7.65;;;3.55;;
60352;SDS011;46196;52.970;6.954;2023-07-02T13:36:15;9.77;;;4.03;;
60352;SDS011;46196;52.970;6.954;2023-07-02T13:38:41;12.48;;;4.05;;
60352;SDS011;46196;52.970;6.954;2023-07-02T13:41:07;12.27;;;4.10;;
60352;SDS011;46196;52.970;6.954;2023-07-02T13:43:33;9.88;;;3.92;;
60352;SDS011;46196;52.970;6.954;2023-07-02T13:45:59;11.30;;;4.60;;
60352;SDS011;46196;52.970;6.954;2023-07-02T13:48:25;13.35;;;4.60;;
60352;SDS011;46196;52.970;6.954;2023-07-02T13:50:51;12.95;;;4.20;;
60352;SDS011;46196;52.970;6.954;2023-07-02T13:53:16;10.88;;;3.80;;
60352;SDS011;46196;52.970;6.954;2023-07-02T13:55:42;11.02;;;4.38;;
60352;SDS011;46196;52.970;6.954;2023-07-02T13:58:08;11.07;;;4.80;;
60352;SDS011;46196;52.970;6.954;2023-07-02T14:00:33;15.20;;;5.68;;
60352;SDS011;46196;52.970;6.954;2023-07-02T14:02:59;19.27;;;4.07;;
60352;SDS011;46196;52.970;6.954;2023-07-02T14:05:25;17.40;;;5.45;;
60352;SDS011;46196;52.970;6.954;2023-07-02T14:07:51;12.77;;;5.78;;
60352;SDS011;46196;52.970;6.954;2023-07-02T14:10:17;11.55;;;4.95;;
60352;SDS011;46196;52.970;6.954;2023-07-02T14:12:42;12.88;;;5.57;;
60352;SDS011;46196;52.970;6.954;2023-07-02T14:15:08;12.77;;;5.65;;
60352;SDS011;46196;52.970;6.954;2023-07-02T14:17:35;12.52;;;5.40;;
60352;SDS011;46196;52.970;6.954;2023-07-02T14:20:01;12.80;;;5.28;;
60352;SDS011;46196;52.970;6.954;2023-07-02T14:22:28;17.17;;;5.22;;
60352;SDS011;46196;52.970;6.954;2023-07-02T14:24:54;12.23;;;5.22;;
60352;SDS011;46196;52.970;6.954;2023-07-02T14:27:20;15.25;;;5.22;;
60352;SDS011;46196;52.970;6.954;2023-07-02T14:29:46;12.27;;;5.97;;
60352;SDS011;46196;52.970;6.954;2023-07-02T14:32:12;11.77;;;4.28;;
60352;SDS011;46196;52.970;6.954;2023-07-02T14:34:38;20.20;;;5.63;;
60352;SDS011;46196;52.970;6.954;2023-07-02T14:37:05;8.32;;;4.68;;
60352;SDS011;46196;52.970;6.954;2023-07-02T14:39:31;14.52;;;5.22;;
60352;SDS011;46196;52.970;6.954;2023-07-02T14:41:57;15.57;;;6.15;;
60352;SDS011;46196;52.970;6.954;2023-07-02T14:44:22;13.75;;;5.65;;